Time;durP1;ratioP1;P1;durP2;ratioP2;P2;SDS_P1;SDS_P2;PMS_P1;PMS_P2;Temp;Humidity;BMP_temperature;BMP_pressure;BME280_temperature;BME280_humidity;BME280_pressure;Samples;Min_cycle;Max_cycle;Signal;HPM_P1;HPM_P2
2022/10/13 00:01:15;;;;;;;48.60;18.30;;;;;;;6.78;68.67;101623.92;107250;1248;138666;-70
2022/10/13 00:03:45;;;;;;;42.70;19.60;;;;;;;6.76;68.54;101619.15;107139;1251;100250;-71
2022/10/13 00:06:10;;;;;;;57.30;19.70;;;;;;;6.74;68.63;101616.67;107124;1245;107828;-70
2022/10/13 00:08:37;;;;;;;44.80;19.50;;;;;;;6.72;68.77;101620.26;107147;1238;139156;-71
2022/10/13 00:11:09;;;;;;;51.20;20.00;;;;;;;6.71;68.79;101619.73;107522;1251;97633;-71
2022/10/13 00:13:34;;;;;;;43.80;18.20;;;;;;;6.70;68.78;101616.73;107235;1244;138608;-71
2022/10/13 00:16:01;;;;;;;53.40;19.30;;;;;;;6.67;68.89;101616.05;107310;1234;97706;-70
2022/10/13 00:18:26;;;;;;;45.60;19.20;;;;;;;6.67;68.96;101613.58;107464;1244;99424;-70
2022/10/13 00:20:51;;;;;;;51.20;19.00;;;;;;;6.64;68.99;101613.25;107086;1243;140142;-70
2022/10/13 00:23:17;;;;;;;50.10;19.00;;;;;;;6.62;68.97;101608.65;107185;1249;96629;-69
2022/10/13 00:25:44;;;;;;;47.10;19.30;;;;;;;6.60;69.11;101605.13;107114;1238;138933;-69
2022/10/13 00:28:10;;;;;;;46.00;18.80;;;;;;;6.60;69.13;101600.69;107325;1238;99492;-69
2022/10/13 00:30:37;;;;;;;50.90;19.70;;;;;;;6.59;69.14;101597.15;107368;1234;97625;-69
2022/10/13 00:33:03;;;;;;;44.70;19.40;;;;;;;6.57;69.04;101590.95;107228;1243;138852;-70
2022/10/13 00:35:28;;;;;;;50.60;18.80;;;;;;;6.55;69.26;101590.80;107461;1238;97688;-70
2022/10/13 00:37:53;;;;;;;47.80;18.50;;;;;;;6.51;69.27;101582.86;107284;1234;139386;-69
2022/10/13 00:40:19;;;;;;;51.30;19.30;;;;;;;6.48;69.20;101583.77;107354;1254;97788;-70
2022/10/13 00:42:44;;;;;;;60.30;20.30;;;;;;;6.47;69.35;101588.77;107341;1234;107201;-69
2022/10/13 00:45:28;;;;;;;43.20;17.70;;;;;;;6.46;69.39;101587.36;107219;1251;138943;-70
2022/10/13 00:48:00;;;;;;;47.90;18.30;;;;;;;6.46;69.49;101592.14;107400;1259;97624;-70
2022/10/13 00:50:32;;;;;;;49.40;19.70;;;;;;;6.47;69.52;101593.73;107213;1234;138340;-70
2022/10/13 00:52:59;;;;;;;53.70;20.00;;;;;;;6.48;69.57;101597.64;107364;1238;99491;-70
2022/10/13 00:55:28;;;;;;;46.30;19.00;;;;;;;6.46;69.68;101593.40;107167;1241;138931;-70
2022/10/13 00:57:54;;;;;;;47.70;19.90;;;;;;;6.43;69.70;101592.55;107204;1247;97652;-70
2022/10/13 01:00:23;;;;;;;42.70;19.40;;;;;;;6.43;69.75;101587.58;107230;1237;97603;-70
2022/10/13 01:02:48;;;;;;;46.70;20.10;;;;;;;6.42;69.66;101589.52;107193;1238;138222;-70
2022/10/13 01:05:15;;;;;;;49.60;19.20;;;;;;;6.41;69.57;101588.66;107323;1241;98964;-70
2022/10/13 01:07:40;;;;;;;55.80;19.40;;;;;;;6.39;69.69;101585.66;107225;1246;138676;-69
2022/10/13 01:10:06;;;;;;;52.30;19.80;;;;;;;6.37;69.81;101586.21;107132;1246;97758;-70
2022/10/13 01:12:37;;;;;;;42.80;19.40;;;;;;;6.35;69.84;101583.76;107175;1255;100771;-69
2022/10/13 01:15:09;;;;;;;;;;;;;;;6.33;69.88;101583.77;107134;1235;140570;-69
2022/10/13 01:17:56;;;;;;;53.80;20.10;;;;;;;6.29;69.89;101583.28;107193;1239;107478;-70
2022/10/13 01:20:30;;;;;;;51.10;21.40;;;;;;;6.26;69.93;101578.00;107061;1245;139001;-70
2022/10/13 01:23:35;;;;;;;48.30;20.00;;;;;;;6.26;70.04;101579.59;107213;1238;97716;-70
2022/10/13 01:26:35;;;;;;;58.00;22.30;;;;;;;6.23;69.99;101583.53;107081;1246;139047;-70
2022/10/13 01:29:10;;;;;;;58.20;20.40;;;;;;;6.21;69.90;101582.66;107182;1247;99225;-70
2022/10/13 01:31:58;;;;;;;66.40;22.30;;;;;;;6.18;69.98;101580.39;107070;1244;139988;-70
2022/10/13 01:34:38;;;;;;;51.20;21.40;;;;;;;6.14;70.03;101572.43;107169;1237;96458;-70
2022/10/13 01:37:19;;;;;;;52.90;21.20;;;;;;;6.11;70.09;101564.66;107065;1243;138448;-70
2022/10/13 01:39:53;;;;;;;51.90;22.10;;;;;;;6.08;70.06;101556.00;107112;1243;111775;-70
2022/10/13 01:42:23;;;;;;;53.60;22.70;;;;;;;6.05;69.95;101555.33;107136;1251;99256;-70
2022/10/13 01:44:54;;;;;;;52.30;20.80;;;;;;;6.03;70.16;101554.98;107031;1254;138809;-70
2022/10/13 01:47:20;;;;;;;53.70;21.10;;;;;;;6.01;70.14;101554.13;107136;1243;97749;-70
2022/10/13 01:49:49;;;;;;;56.20;21.40;;;;;;;5.97;70.05;101554.70;107134;1260;138774;-70
2022/10/13 01:52:17;;;;;;;53.70;21.80;;;;;;;5.93;70.09;101547.64;107340;1241;111049;-70
2022/10/13 01:54:48;;;;;;;54.70;21.30;;;;;;;5.90;70.13;101546.42;107361;1245;99395;-70
2022/10/13 01:57:32;;;;;;;50.40;22.00;;;;;;;5.87;70.27;101545.36;107184;1251;138331;-70
2022/10/13 02:00:06;;;;;;;57.80;21.60;;;;;;;5.85;70.27;101545.73;107360;1248;97723;-70
2022/10/13 02:02:42;;;;;;;59.20;21.00;;;;;;;5.84;70.49;101544.49;107154;1254;138704;-70
2022/10/13 02:05:22;;;;;;;58.30;22.50;;;;;;;5.84;70.32;101542.73;107153;1245;111111;-70
2022/10/13 02:08:12;;;;;;;52.10;21.10;;;;;;;5.82;70.41;101541.14;107140;1238;138849;-70
2022/10/13 02:10:47;;;;;;;51.50;21.00;;;;;;;5.82;70.50;101537.60;107329;1237;107596;-70
2022/10/13 02:13:14;;;;;;;57.20;21.50;;;;;;;5.80;70.52;101534.42;107248;1248;139820;-70
2022/10/13 02:15:44;;;;;;;47.90;20.10;;;;;;;5.81;70.68;101527.85;107351;1248;97690;-70
2022/10/13 02:18:12;;;;;;;54.90;22.30;;;;;;;5.82;70.58;101521.81;107335;1248;111510;-70
2022/10/13 02:20:40;;;;;;;55.10;22.60;;;;;;;5.80;70.56;101514.38;107248;1238;138538;-70
2022/10/13 02:23:15;;;;;;;50.80;20.20;;;;;;;5.79;70.59;101514.58;107257;1238;108346;-70
2022/10/13 02:25:42;;;;;;;57.30;23.40;;;;;;;5.78;70.59;101517.06;107244;1250;138489;-70
2022/10/13 02:28:08;;;;;;;54.30;21.80;;;;;;;5.77;70.71;101519.73;107373;1243;97750;-70
2022/10/13 02:30:34;;;;;;;49.40;21.00;;;;;;;5.76;70.79;101514.42;107343;1248;97640;-70
2022/10/13 02:33:00;;;;;;;49.90;20.50;;;;;;;5.73;70.86;101512.15;107099;1246;139151;-70
2022/10/13 02:35:26;;;;;;;60.40;21.60;;;;;;;5.72;70.89;101515.70;107135;1243;97645;-70
2022/10/13 02:37:51;;;;;;;59.50;22.20;;;;;;;5.71;70.88;101514.65;107146;1245;139411;-70
2022/10/13 02:40:16;;;;;;;43.80;21.30;;;;;;;5.71;70.93;101519.44;107374;1243;96528;-70
2022/10/13 02:42:42;;;;;;;48.30;20.80;;;;;;;5.71;70.91;101518.73;107329;1250;97616;-70
2022/10/13 02:45:08;;;;;;;61.30;23.10;;;;;;;5.70;70.97;101518.02;107179;1234;139110;-70
2022/10/13 02:47:33;;;;;;;62.30;23.50;;;;;;;5.68;70.99;101517.52;107387;1249;98084;-70
2022/10/13 02:49:59;;;;;;;67.30;23.30;;;;;;;5.68;71.01;101514.15;107265;1244;138808;-70
2022/10/13 02:52:24;;;;;;;58.80;22.10;;;;;;;5.67;71.21;101516.29;107367;1243;97666;-70
2022/10/13 02:54:49;;;;;;;63.70;23.30;;;;;;;5.66;71.07;101516.83;107331;1257;97663;-70
2022/10/13 02:57:14;;;;;;;50.00;21.90;;;;;;;5.64;71.16;101519.14;107289;1241;138127;-70
2022/10/13 02:59:39;;;;;;;51.60;23.10;;;;;;;5.64;71.21;101519.51;107285;1246;97937;-70
2022/10/13 03:02:04;;;;;;;58.00;22.40;;;;;;;5.63;71.32;101520.58;107133;1243;138358;-70
2022/10/13 03:04:30;;;;;;;59.60;23.70;;;;;;;5.61;71.28;101519.54;107177;1243;97669;-70
2022/10/13 03:06:56;;;;;;;59.10;22.50;;;;;;;5.60;71.33;101514.41;107129;1238;97803;-70
2022/10/13 03:09:21;;;;;;;53.90;23.30;;;;;;;5.58;71.41;101509.63;107237;1248;140844;-70
2022/10/13 03:11:46;;;;;;;54.50;23.20;;;;;;;5.55;71.51;101510.19;107300;1241;97626;-70
2022/10/13 03:14:11;;;;;;;58.60;23.90;;;;;;;5.53;71.48;101507.17;107085;1250;138288;-70
2022/10/13 03:16:37;;;;;;;54.30;22.40;;;;;;;5.53;71.61;101512.33;107208;1247;97636;-70
2022/10/13 03:19:02;;;;;;;59.70;22.60;;;;;;;5.51;71.58;101511.10;106980;1252;138964;-70
2022/10/13 03:21:27;;;;;;;52.40;23.00;;;;;;;5.49;71.57;101510.59;107425;1251;96519;-70
2022/10/13 03:23:53;;;;;;;55.10;23.80;;;;;;;5.48;71.53;101507.05;107327;1244;96566;-70
2022/10/13 03:26:18;;;;;;;61.20;22.90;;;;;;;5.47;71.51;101506.00;107245;1233;141066;-70
2022/10/13 03:28:48;;;;;;;57.40;23.30;;;;;;;5.45;71.60;101504.77;107362;1234;98993;-70
2022/10/13 03:31:13;;;;;;;59.20;23.00;;;;;;;5.43;71.60;101507.28;107225;1251;138614;-70
2022/10/13 03:33:40;;;;;;;56.20;23.50;;;;;;;5.41;71.65;101504.28;107211;1259;96573;-70
2022/10/13 03:36:06;;;;;;;56.50;21.80;;;;;;;5.40;71.67;101503.93;107280;1253;98493;-69
2022/10/13 03:38:33;;;;;;;56.40;23.60;;;;;;;5.38;71.71;101498.11;107161;1236;139888;-69
2022/10/13 03:41:13;;;;;;;53.00;23.20;;;;;;;5.36;71.81;101493.34;107357;1233;99510;-70
2022/10/13 03:43:40;;;;;;;52.20;22.40;;;;;;;5.34;71.77;101491.58;107229;1251;139015;-70
2022/10/13 03:46:06;;;;;;;57.80;25.20;;;;;;;5.32;71.84;101489.48;107357;1252;97662;-70
2022/10/13 03:48:33;;;;;;;54.20;24.50;;;;;;;5.31;71.88;101489.30;107413;1238;97623;-72
2022/10/13 03:50:59;;;;;;;68.50;23.70;;;;;;;5.30;71.80;101491.80;107245;1244;138109;-70
2022/10/13 03:53:24;;;;;;;57.10;23.90;;;;;;;5.28;71.96;101491.98;107431;1251;97628;-70
2022/10/13 03:55:52;;;;;;;55.40;22.50;;;;;;;5.25;71.94;101489.17;107212;1234;138914;-70
2022/10/13 03:58:18;;;;;;;60.00;22.80;;;;;;;5.23;71.93;101492.20;107324;1241;97633;-70
2022/10/13 04:00:44;;;;;;;55.10;23.90;;;;;;;5.21;71.95;101499.31;107425;1244;97723;-70
2022/10/13 04:03:09;;;;;;;56.10;24.60;;;;;;;5.20;71.94;101498.98;107255;1257;140346;-70
2022/10/13 04:05:34;;;;;;;56.20;22.10;;;;;;;5.20;72.03;101496.70;107300;1251;97602;-70
2022/10/13 04:08:00;;;;;;;57.20;24.20;;;;;;;5.19;72.07;101497.76;107189;1249;138351;-70
2022/10/13 04:10:25;;;;;;;68.10;25.00;;;;;;;5.18;71.98;101501.48;107406;1248;97656;-70
2022/10/13 04:12:50;;;;;;;57.80;24.10;;;;;;;5.17;72.19;101497.95;107359;1234;97711;-70
2022/10/13 04:15:15;;;;;;;56.90;23.70;;;;;;;5.15;72.30;101493.02;107103;1243;138149;-70
2022/10/13 04:17:41;;;;;;;51.60;21.60;;;;;;;5.14;72.19;101496.21;107156;1245;97661;-70
2022/10/13 04:20:06;;;;;;;49.30;20.90;;;;;;;5.12;72.22;101494.62;107161;1251;138403;-70
2022/10/13 04:22:32;;;;;;;54.70;23.00;;;;;;;5.10;72.25;101496.77;107340;1250;108290;-70
2022/10/13 04:24:57;;;;;;;53.00;22.80;;;;;;;5.09;72.30;101495.18;107231;1233;138504;-70
2022/10/13 04:27:22;;;;;;;56.40;22.80;;;;;;;5.07;72.44;101492.89;107249;1246;97636;-70
2022/10/13 04:29:48;;;;;;;52.40;21.70;;;;;;;5.07;72.43;101492.54;107183;1240;98144;-70
2022/10/13 04:32:13;;;;;;;60.60;22.90;;;;;;;5.05;72.35;101488.13;107155;1251;138950;-70
2022/10/13 04:34:38;;;;;;;60.70;24.00;;;;;;;5.03;72.32;101489.02;107354;1241;97608;-70
2022/10/13 04:37:03;;;;;;;51.10;22.30;;;;;;;5.01;72.53;101487.98;107313;1241;140166;-70
2022/10/13 04:39:28;;;;;;;50.90;22.30;;;;;;;5.00;72.37;101486.21;107343;1238;107752;-70
2022/10/13 04:41:54;;;;;;;54.50;22.90;;;;;;;4.98;72.45;101489.23;107335;1245;97837;-70
2022/10/13 04:44:20;;;;;;;53.20;22.50;;;;;;;4.96;72.40;101487.84;107273;1242;138300;-70
2022/10/13 04:46:45;;;;;;;57.20;23.90;;;;;;;4.95;72.64;101486.07;107362;1244;98270;-70
2022/10/13 04:49:10;;;;;;;52.40;23.90;;;;;;;4.93;72.48;101486.08;107219;1237;138584;-70
2022/10/13 04:51:36;;;;;;;56.80;23.60;;;;;;;4.92;72.52;101480.25;107358;1252;96510;-70
2022/10/13 04:54:04;;;;;;;66.70;25.60;;;;;;;4.89;72.61;101478.67;107307;1243;97703;-70
2022/10/13 04:56:29;;;;;;;61.90;24.10;;;;;;;4.89;72.74;101478.67;107241;1245;138950;-70
2022/10/13 04:58:55;;;;;;;56.50;25.30;;;;;;;4.89;72.79;101478.84;107427;1248;97714;-69
2022/10/13 05:01:22;;;;;;;53.80;23.50;;;;;;;4.88;72.84;101469.11;107194;1242;138665;-70
2022/10/13 05:03:53;;;;;;;58.40;24.10;;;;;;;4.87;72.71;101470.36;107187;1239;111138;-70
2022/10/13 05:06:21;;;;;;;56.60;25.00;;;;;;;4.85;72.78;101468.08;107236;1247;97616;-70
2022/10/13 05:08:46;;;;;;;61.60;25.00;;;;;;;4.85;73.06;101466.83;107074;1238;138424;-70
2022/10/13 05:11:11;;;;;;;64.10;24.80;;;;;;;4.85;72.98;101467.02;107122;1243;97701;-70
2022/10/13 05:13:37;;;;;;;57.90;24.40;;;;;;;4.84;73.15;101468.25;107185;1241;139386;-70
2022/10/13 05:16:09;;;;;;;55.10;24.20;;;;;;;4.85;73.14;101466.48;107312;1239;98955;-70
2022/10/13 05:18:36;;;;;;;60.90;25.90;;;;;;;4.84;73.04;101462.23;107435;1244;107869;-70
2022/10/13 05:21:10;;;;;;;71.90;24.80;;;;;;;4.84;73.07;101462.94;107091;1230;138360;-70
2022/10/13 05:23:35;;;;;;;58.50;25.10;;;;;;;4.83;73.05;101460.47;107234;1247;97709;-70
2022/10/13 05:26:05;;;;;;;72.20;25.20;;;;;;;4.83;73.35;101461.17;107077;1248;140660;-70
2022/10/13 05:28:31;;;;;;;59.30;24.20;;;;;;;4.84;73.17;101456.56;107248;1254;100968;-70
2022/10/13 05:30:57;;;;;;;60.10;26.40;;;;;;;4.83;73.17;101455.34;107321;1246;138978;-70
2022/10/13 05:33:22;;;;;;;70.20;27.70;;;;;;;4.84;73.33;101460.83;107580;1238;97899;-69
2022/10/13 05:35:47;;;;;;;64.00;26.10;;;;;;;4.84;73.29;101457.45;107483;1244;97599;-69
2022/10/13 05:38:12;;;;;;;70.50;25.90;;;;;;;4.85;73.53;101454.95;107446;1251;138542;-70
2022/10/13 05:40:37;;;;;;;63.90;24.90;;;;;;;4.87;73.39;101453.01;107484;1245;97795;-69
2022/10/13 05:43:03;;;;;;;59.10;26.90;;;;;;;4.88;73.54;101442.90;107394;1238;139746;-70
2022/10/13 05:45:31;;;;;;;66.70;25.80;;;;;;;4.92;73.54;101439.34;107529;1237;97685;-70
2022/10/13 05:47:56;;;;;;;52.90;24.40;;;;;;;4.93;73.50;101439.67;107482;1245;108065;-70
2022/10/13 05:50:22;;;;;;;65.50;25.00;;;;;;;4.94;73.57;101441.27;107289;1251;139454;-70
2022/10/13 05:52:47;;;;;;;62.40;25.00;;;;;;;4.96;73.53;101440.01;107302;1261;96436;-71
2022/10/13 05:55:15;;;;;;;68.30;25.50;;;;;;;4.98;73.66;101440.35;107152;1243;138898;-70
2022/10/13 05:57:44;;;;;;;63.30;24.90;;;;;;;5.00;73.70;101438.56;107429;1238;97684;-70
2022/10/13 06:00:15;;;;;;;73.40;25.20;;;;;;;5.03;73.60;101441.02;107400;1251;97612;-70
2022/10/13 06:02:51;;;;;;;55.90;24.60;;;;;;;5.05;73.75;101441.89;107176;1250;138211;-70
2022/10/13 06:05:19;;;;;;;58.50;23.90;;;;;;;5.09;73.93;101440.44;107178;1232;110792;-70
2022/10/13 06:07:46;;;;;;;62.20;23.60;;;;;;;5.12;73.88;101438.81;107120;1238;139914;-70
2022/10/13 06:10:12;;;;;;;57.20;24.00;;;;;;;5.16;73.79;101441.80;107325;1238;107054;-69
2022/10/13 06:12:37;;;;;;;72.80;26.00;;;;;;;5.18;73.60;101441.61;107385;1243;98518;-70
2022/10/13 06:15:04;;;;;;;48.10;21.90;;;;;;;5.21;73.92;101441.55;107187;1247;139385;-69
2022/10/13 06:17:29;;;;;;;61.00;24.10;;;;;;;5.25;73.89;101441.51;107244;1242;100296;-71
2022/10/13 06:19:54;;;;;;;53.30;24.00;;;;;;;5.30;73.95;101439.52;107176;1229;138526;-69
2022/10/13 06:22:20;;;;;;;58.30;24.20;;;;;;;5.33;73.85;101437.72;107434;1241;97742;-70
2022/10/13 06:24:46;;;;;;;52.90;23.90;;;;;;;5.37;73.87;101436.09;107323;1244;97703;-69
2022/10/13 06:27:11;;;;;;;49.50;23.40;;;;;;;5.41;74.02;101431.44;107232;1238;138348;-70
2022/10/13 06:29:36;;;;;;;61.50;25.20;;;;;;;5.45;74.11;101434.77;107404;1251;96643;-70
2022/10/13 06:32:02;;;;;;;56.70;23.10;;;;;;;5.48;74.15;101431.02;107179;1240;140271;-70
2022/10/13 06:34:27;;;;;;;55.60;23.30;;;;;;;5.52;74.05;101427.96;107292;1237;98416;-70
2022/10/13 06:36:52;;;;;;;56.60;25.30;;;;;;;5.56;74.19;101423.13;107168;1253;99953;-70
2022/10/13 06:39:17;;;;;;;65.70;25.30;;;;;;;5.60;74.09;101423.80;107316;1238;138031;-70
2022/10/13 06:41:42;;;;;;;55.80;25.10;;;;;;;5.65;74.13;101420.03;107351;1244;97393;-69
2022/10/13 06:44:08;;;;;;;62.10;24.50;;;;;;;5.69;74.23;101417.50;107238;1243;138341;-70
2022/10/13 06:46:33;;;;;;;50.60;23.00;;;;;;;5.72;74.27;101414.63;107379;1251;98014;-70
2022/10/13 06:48:58;;;;;;;59.70;23.70;;;;;;;5.76;74.07;101412.81;107239;1238;139202;-70
2022/10/13 06:51:24;;;;;;;49.90;22.60;;;;;;;5.80;74.24;101414.89;107185;1229;97657;-70
2022/10/13 06:53:49;;;;;;;56.30;23.50;;;;;;;5.85;74.06;101412.52;107139;1246;99230;-70
2022/10/13 06:56:14;;;;;;;57.70;23.10;;;;;;;5.91;74.27;101417.27;107200;1248;138794;-70
2022/10/13 06:58:39;;;;;;;55.50;21.60;;;;;;;5.96;74.23;101415.80;107331;1241;110970;-70
2022/10/13 07:01:05;;;;;;;58.60;23.80;;;;;;;6.02;74.50;101416.79;107205;1238;139600;-70
2022/10/13 07:03:31;;;;;;;57.40;23.40;;;;;;;6.09;74.41;101415.99;107200;1238;97645;-70
2022/10/13 07:06:04;;;;;;;59.80;23.90;;;;;;;6.15;74.33;101414.67;107115;1239;97621;-70
2022/10/13 07:08:31;;;;;;;58.40;22.80;;;;;;;6.23;74.36;101406.95;107254;1246;139793;-70
2022/10/13 07:10:56;;;;;;;56.10;22.90;;;;;;;6.30;74.41;101407.73;107326;1245;97756;-70
2022/10/13 07:13:22;;;;;;;61.00;23.10;;;;;;;6.38;74.46;101406.20;107266;1242;139611;-70
2022/10/13 07:15:47;;;;;;;58.20;22.40;;;;;;;6.44;74.42;101406.30;107369;1251;97926;-70
2022/10/13 07:18:12;;;;;;;46.80;22.30;;;;;;;6.51;74.42;101410.45;107350;1244;97676;-70
2022/10/13 07:20:37;;;;;;;61.30;23.90;;;;;;;6.60;74.45;101416.36;107308;1241;138406;-70
2022/10/13 07:23:02;;;;;;;51.90;23.20;;;;;;;6.69;74.43;101415.70;107315;1251;97716;-70
2022/10/13 07:25:28;;;;;;;59.00;21.40;;;;;;;6.76;74.52;101405.81;107343;1234;138354;-70
2022/10/13 07:27:53;;;;;;;51.60;22.50;;;;;;;6.84;74.52;101401.42;107346;1238;98358;-70
2022/10/13 07:30:18;;;;;;;53.00;20.60;;;;;;;6.93;74.52;101398.44;107404;1252;97737;-70
2022/10/13 07:32:43;;;;;;;54.60;22.10;;;;;;;7.02;74.62;101401.49;107255;1238;138591;-70
2022/10/13 07:35:10;;;;;;;48.90;21.50;;;;;;;7.10;74.42;101400.81;107377;1243;97754;-70
2022/10/13 07:37:36;;;;;;;43.10;19.50;;;;;;;7.19;74.59;101395.15;107679;1244;138715;-70
2022/10/13 07:40:03;;;;;;;43.80;20.10;;;;;;;7.28;74.52;101394.28;107348;1238;97719;-70
2022/10/13 07:42:28;;;;;;;45.80;21.30;;;;;;;7.36;74.57;101391.11;107351;1230;97705;-71
2022/10/13 07:44:54;;;;;;;51.30;21.80;;;;;;;7.45;74.46;101386.15;107224;1247;138344;-70
2022/10/13 07:47:19;;;;;;;51.80;21.40;;;;;;;7.54;74.47;101384.38;107179;1231;107465;-69
2022/10/13 07:49:44;;;;;;;48.00;19.90;;;;;;;7.64;74.48;101382.41;107127;1251;139689;-70
2022/10/13 07:52:09;;;;;;;49.90;18.10;;;;;;;7.72;74.42;101385.27;107440;1244;97636;-71
2022/10/13 07:54:34;;;;;;;40.50;19.10;;;;;;;7.82;74.49;101383.61;107391;1230;97615;-71
2022/10/13 07:57:00;;;;;;;47.30;19.30;;;;;;;7.95;74.54;101377.84;107276;1237;138901;-70
2022/10/13 07:59:25;;;;;;;41.80;18.10;;;;;;;8.06;74.49;101377.77;107348;1239;97783;-70
2022/10/13 08:01:50;;;;;;;39.50;17.80;;;;;;;8.15;74.44;101376.16;107314;1244;139178;-70
2022/10/13 08:04:15;;;;;;;43.00;17.90;;;;;;;8.26;74.40;101379.12;107356;1253;97702;-70
2022/10/13 08:06:41;;;;;;;38.10;18.10;;;;;;;8.35;74.36;101381.97;107437;1246;97631;-70
2022/10/13 08:09:07;;;;;;;41.90;17.50;;;;;;;8.45;74.39;101377.13;107174;1238;139485;-70
2022/10/13 08:11:33;;;;;;;48.20;17.90;;;;;;;8.57;74.36;101372.75;107206;1253;99548;-71
2022/10/13 08:14:01;;;;;;;38.40;16.50;;;;;;;8.68;74.35;101377.66;107156;1259;138402;-71
2022/10/13 08:16:27;;;;;;;40.20;17.30;;;;;;;8.79;74.31;101375.59;107441;1244;97823;-71
2022/10/13 08:18:53;;;;;;;44.70;19.30;;;;;;;8.89;74.19;101378.03;107441;1244;97636;-71
2022/10/13 08:21:21;;;;;;;38.80;16.50;;;;;;;8.99;74.16;101371.90;107168;1246;138316;-71
2022/10/13 08:23:47;;;;;;;35.70;17.60;;;;;;;9.07;73.97;101368.46;108677;1246;109408;-71
2022/10/13 08:26:18;;;;;;;34.40;16.90;;;;;;;9.17;73.99;101364.84;108539;1244;139725;-70
2022/10/13 08:28:44;;;;;;;32.50;16.10;;;;;;;9.29;73.90;101367.73;107450;1230;97474;-70
2022/10/13 08:31:09;;;;;;;44.00;16.30;;;;;;;9.38;73.83;101363.38;107283;1243;138477;-70
2022/10/13 08:33:34;;;;;;;38.80;16.80;;;;;;;9.46;73.84;101365.48;107227;1238;97378;-70
2022/10/13 08:36:00;;;;;;;38.60;15.20;;;;;;;9.55;73.63;101363.81;107160;1240;97646;-70
2022/10/13 08:38:25;;;;;;;30.80;14.80;;;;;;;9.65;73.74;101361.05;107267;1238;138447;-70
2022/10/13 08:40:51;;;;;;;39.00;18.00;;;;;;;9.74;73.75;101359.52;107418;1244;97681;-70
2022/10/13 08:43:19;;;;;;;32.10;14.50;;;;;;;9.86;73.51;101355.63;107203;1244;138502;-70
2022/10/13 08:45:47;;;;;;;43.00;17.10;;;;;;;9.98;73.42;101354.91;107123;1245;96417;-71
2022/10/13 08:48:20;;;;;;;37.60;14.60;;;;;;;10.09;73.44;101352.42;107105;1240;98093;-70
2022/10/13 08:50:50;;;;;;;39.10;15.00;;;;;;;10.21;73.21;101345.30;107046;1232;138605;-69
2022/10/13 08:53:35;;;;;;;35.60;16.10;;;;;;;10.30;73.12;101340.20;107076;1236;99278;-70
2022/10/13 08:56:22;;;;;;;29.10;14.70;;;;;;;10.40;73.06;101334.89;106992;1242;138494;-70
2022/10/13 08:58:49;;;;;;;30.60;13.60;;;;;;;10.50;72.86;101335.07;107120;1238;97708;-71
2022/10/13 09:01:22;;;;;;;31.50;13.70;;;;;;;10.59;72.85;101333.88;107017;1232;139295;-70
2022/10/13 09:04:17;;;;;;;29.30;13.60;;;;;;;10.70;72.72;101325.84;107137;1232;111726;-70
2022/10/13 09:06:54;;;;;;;32.00;12.10;;;;;;;10.83;72.48;101325.08;107034;1240;99791;-70
2022/10/13 09:09:20;;;;;;;27.20;11.90;;;;;;;10.93;72.33;101324.71;107161;1251;139505;-70
2022/10/13 09:11:48;;;;;;;29.90;13.30;;;;;;;11.04;72.37;101323.98;107335;1244;97635;-70
2022/10/13 09:14:28;;;;;;;26.90;12.50;;;;;;;11.19;72.29;101322.04;107105;1244;138485;-69
2022/10/13 09:16:55;;;;;;;29.00;13.40;;;;;;;11.31;71.90;101318.02;107134;1247;110820;-70
2022/10/13 09:19:32;;;;;;;31.20;13.50;;;;;;;11.39;71.75;101318.08;107058;1240;140252;-71
2022/10/13 09:22:22;;;;;;;23.10;11.10;;;;;;;11.50;71.47;101317.17;107327;1230;107268;-70
2022/10/13 09:24:49;;;;;;;27.70;11.40;;;;;;;11.64;71.47;101314.31;107359;1235;97667;-70
2022/10/13 09:27:16;;;;;;;30.20;10.80;;;;;;;11.71;71.16;101311.35;107184;1237;138990;-70
2022/10/13 09:29:43;;;;;;;27.40;12.10;;;;;;;11.79;71.11;101311.96;107339;1236;97644;-70
2022/10/13 09:32:15;;;;;;;31.70;10.60;;;;;;;11.88;70.89;101312.38;107098;1235;139138;-70
2022/10/13 09:34:40;;;;;;;24.90;10.30;;;;;;;11.98;70.86;101310.34;107137;1235;108562;-69
2022/10/13 09:37:16;;;;;;;28.40;9.50;;;;;;;12.10;70.65;101308.11;107016;1245;143422;-70
2022/10/13 09:39:41;;;;;;;22.10;9.40;;;;;;;12.21;70.46;101309.30;107380;1230;97635;-68
2022/10/13 09:42:21;;;;;;;27.80;9.20;;;;;;;12.30;70.20;101310.16;107314;1231;96890;-69
2022/10/13 09:44:55;;;;;;;25.50;10.30;;;;;;;12.42;70.15;101310.41;107237;1244;137722;-70
2022/10/13 09:47:20;;;;;;;27.40;9.90;;;;;;;12.52;69.95;101308.40;107293;1230;108115;-71
2022/10/13 09:49:58;;;;;;;19.30;10.20;;;;;;;12.63;69.80;101302.00;107215;1244;138003;-71
2022/10/13 09:52:24;;;;;;;22.20;10.10;;;;;;;12.75;69.67;101300.82;107322;1231;97668;-69
2022/10/13 09:54:52;;;;;;;17.50;9.80;;;;;;;12.84;69.40;101298.09;107614;1231;97737;-71
2022/10/13 09:57:30;;;;;;;26.80;9.30;;;;;;;12.95;69.22;101299.41;107327;1235;137960;-72
2022/10/13 10:00:20;;;;;;;21.80;9.10;;;;;;;13.01;68.99;101293.58;107169;1244;107376;-70
2022/10/13 10:03:14;;;;;;;16.90;9.00;;;;;;;13.11;68.73;101288.48;107223;1256;139242;-70
2022/10/13 10:05:46;;;;;;;21.90;8.90;;;;;;;13.24;68.68;101288.27;107387;1246;97416;-71
2022/10/13 10:08:39;;;;;;;27.30;8.10;;;;;;;13.34;68.50;101282.64;107150;1239;138163;-71
2022/10/13 10:11:11;;;;;;;22.10;8.60;;;;;;;13.47;68.19;101268.94;107249;1251;99432;-71
2022/10/13 10:13:36;;;;;;;18.50;8.10;;;;;;;13.57;67.91;101265.26;107168;1245;138032;-71
2022/10/13 10:16:06;;;;;;;16.60;7.80;;;;;;;13.66;67.71;101265.38;107370;1244;97712;-71
2022/10/13 10:18:44;;;;;;;22.00;8.60;;;;;;;13.73;67.47;101264.13;107349;1244;97619;-71
2022/10/13 10:21:38;;;;;;;22.50;8.00;;;;;;;13.84;67.43;101262.17;107180;1236;137686;-70
2022/10/13 10:24:24;;;;;;;19.70;8.30;;;;;;;13.94;67.25;101260.61;107346;1243;99710;-71
2022/10/13 10:26:58;;;;;;;21.20;8.40;;;;;;;14.06;67.12;101258.27;107108;1246;137707;-70
2022/10/13 10:29:45;;;;;;;17.20;7.60;;;;;;;14.17;66.67;101255.21;107156;1247;97727;-69
2022/10/13 10:32:42;;;;;;;16.20;6.90;;;;;;;14.26;66.52;101252.08;107219;1247;137658;-70
2022/10/13 10:35:30;;;;;;;17.50;6.90;;;;;;;14.37;66.31;101241.86;107376;1251;111255;-70
2022/10/13 10:38:21;;;;;;;13.50;6.20;;;;;;;14.48;66.20;101240.58;107191;1238;137821;-70
2022/10/13 10:41:15;;;;;;;15.70;6.90;;;;;;;14.63;66.00;101236.05;107115;1246;107424;-70
2022/10/13 10:43:50;;;;;;;15.20;6.90;;;;;;;14.77;65.44;101239.33;107131;1246;138409;-71
2022/10/13 10:46:27;;;;;;;19.20;7.10;;;;;;;14.86;65.47;101234.70;107316;1251;97769;-71
2022/10/13 10:49:02;;;;;;;16.70;6.40;;;;;;;14.98;65.21;101230.67;107309;1231;111094;-71
2022/10/13 10:51:31;;;;;;;14.90;6.80;;;;;;;15.06;64.77;101227.52;107411;1240;98798;-70
2022/10/13 10:54:14;;;;;;;22.60;7.30;;;;;;;15.16;64.68;101224.82;107304;1230;106848;-70
2022/10/13 10:56:46;;;;;;;13.50;6.50;;;;;;;15.25;64.34;101224.86;107217;1243;139973;-71
2022/10/13 10:59:35;;;;;;;14.60;7.00;;;;;;;15.36;64.34;101217.84;107309;1251;97431;-71
2022/10/13 11:02:26;;;;;;;15.30;7.40;;;;;;;15.50;64.16;101216.85;107189;1238;140056;-69
2022/10/13 11:04:52;;;;;;;19.10;6.70;;;;;;;15.64;63.89;101210.86;107332;1254;100408;-71
2022/10/13 11:07:23;;;;;;;17.30;6.70;;;;;;;15.78;63.81;101206.81;107163;1235;138352;-69
2022/10/13 11:09:49;;;;;;;;;;;;;;;15.93;63.67;101205.45;107327;1256;97761;-69
2022/10/13 11:12:20;;;;;;;21.50;6.90;;;;;;;16.05;63.57;101201.52;107320;1234;97725;-68
2022/10/13 11:15:08;;;;;;;14.60;6.70;;;;;;;16.17;63.04;101200.06;107185;1252;138963;-69